sensor_id;sensor_type;location;lat;lon;timestamp;P1;durP1;ratioP1;P2;durP2;ratioP2
9424;SDS011;17139;52.140;11.636;2023-03-24T00:01:06;1.45;;;1.42;;
9424;SDS011;17139;52.140;11.636;2023-03-24T00:03:33;1.53;;;1.40;;
9424;SDS011;17139;52.140;11.636;2023-03-24T00:06:01;1.42;;;1.33;;
9424;SDS011;17139;52.140;11.636;2023-03-24T00:08:30;1.35;;;1.35;;
9424;SDS011;17139;52.140;11.636;2023-03-24T00:11:02;1.45;;;1.45;;
9424;SDS011;17139;52.140;11.636;2023-03-24T00:13:31;1.17;;;1.17;;
9424;SDS011;17139;52.140;11.636;2023-03-24T00:16:02;1.23;;;1.23;;
9424;SDS011;17139;52.140;11.636;2023-03-24T00:18:30;1.23;;;1.23;;
9424;SDS011;17139;52.140;11.636;2023-03-24T00:20:57;1.60;;;1.50;;
9424;SDS011;17139;52.140;11.636;2023-03-24T00:23:25;1.20;;;1.20;;
9424;SDS011;17139;52.140;11.636;2023-03-24T00:26:00;1.20;;;1.20;;
9424;SDS011;17139;52.140;11.636;2023-03-24T00:28:31;1.40;;;1.40;;
9424;SDS011;17139;52.140;11.636;2023-03-24T00:31:01;1.73;;;1.40;;
9424;SDS011;17139;52.140;11.636;2023-03-24T00:33:29;1.20;;;1.20;;
9424;SDS011;17139;52.140;11.636;2023-03-24T00:35:59;1.23;;;1.13;;
9424;SDS011;17139;52.140;11.636;2023-03-24T00:38:26;1.53;;;1.30;;
9424;SDS011;17139;52.140;11.636;2023-03-24T00:40:54;3.92;;;1.00;;
9424;SDS011;17139;52.140;11.636;2023-03-24T00:43:22;1.10;;;1.10;;
9424;SDS011;17139;52.140;11.636;2023-03-24T00:45:56;1.27;;;1.27;;
9424;SDS011;17139;52.140;11.636;2023-03-24T00:48:26;0.95;;;0.95;;
9424;SDS011;17139;52.140;11.636;2023-03-24T00:50:54;1.23;;;0.98;;
9424;SDS011;17139;52.140;11.636;2023-03-24T00:53:21;1.60;;;1.50;;
9424;SDS011;17139;52.140;11.636;2023-03-24T00:55:50;1.38;;;1.27;;
9424;SDS011;17139;52.140;11.636;2023-03-24T00:58:18;1.13;;;1.13;;
9424;SDS011;17139;52.140;11.636;2023-03-24T01:00:49;1.10;;;1.10;;
9424;SDS011;17139;52.140;11.636;2023-03-24T01:03:21;1.23;;;0.90;;
9424;SDS011;17139;52.140;11.636;2023-03-24T01:05:51;1.48;;;1.48;;
9424;SDS011;17139;52.140;11.636;2023-03-24T01:08:22;1.30;;;1.20;;
9424;SDS011;17139;52.140;11.636;2023-03-24T01:10:50;1.55;;;1.45;;
9424;SDS011;17139;52.140;11.636;2023-03-24T01:13:19;1.00;;;1.00;;
9424;SDS011;17139;52.140;11.636;2023-03-24T01:15:48;1.23;;;1.13;;
9424;SDS011;17139;52.140;11.636;2023-03-24T01:18:17;2.28;;;1.30;;
9424;SDS011;17139;52.140;11.636;2023-03-24T01:20:45;1.30;;;1.20;;
9424;SDS011;17139;52.140;11.636;2023-03-24T01:23:14;1.40;;;1.23;;
9424;SDS011;17139;52.140;11.636;2023-03-24T01:25:43;1.35;;;1.35;;
9424;SDS011;17139;52.140;11.636;2023-03-24T01:28:12;1.67;;;1.50;;
9424;SDS011;17139;52.140;11.636;2023-03-24T01:30:41;2.33;;;1.45;;
9424;SDS011;17139;52.140;11.636;2023-03-24T01:33:11;1.27;;;1.17;;
9424;SDS011;17139;52.140;11.636;2023-03-24T01:35:38;1.35;;;1.25;;
9424;SDS011;17139;52.140;11.636;2023-03-24T01:38:05;1.63;;;1.25;;
9424;SDS011;17139;52.140;11.636;2023-03-24T01:40:34;2.75;;;1.40;;
9424;SDS011;17139;52.140;11.636;2023-03-24T01:43:04;1.33;;;1.30;;
9424;SDS011;17139;52.140;11.636;2023-03-24T01:45:39;2.00;;;1.90;;
9424;SDS011;17139;52.140;11.636;2023-03-24T01:48:12;2.17;;;1.98;;
9424;SDS011;17139;52.140;11.636;2023-03-24T01:50:42;1.70;;;1.60;;
9424;SDS011;17139;52.140;11.636;2023-03-24T01:53:12;1.20;;;1.20;;
9424;SDS011;17139;52.140;11.636;2023-03-24T01:55:39;1.15;;;1.15;;
9424;SDS011;17139;52.140;11.636;2023-03-24T01:58:09;1.45;;;1.45;;
9424;SDS011;17139;52.140;11.636;2023-03-24T02:00:38;1.48;;;1.48;;
9424;SDS011;17139;52.140;11.636;2023-03-24T02:03:06;1.80;;;1.70;;
9424;SDS011;17139;52.140;11.636;2023-03-24T02:05:40;2.83;;;1.58;;
9424;SDS011;17139;52.140;11.636;2023-03-24T02:08:12;1.88;;;1.77;;
9424;SDS011;17139;52.140;11.636;2023-03-24T02:10:44;2.83;;;2.03;;
9424;SDS011;17139;52.140;11.636;2023-03-24T02:13:12;4.32;;;1.90;;
9424;SDS011;17139;52.140;11.636;2023-03-24T02:15:42;1.73;;;1.40;;
9424;SDS011;17139;52.140;11.636;2023-03-24T02:18:15;1.30;;;1.30;;
9424;SDS011;17139;52.140;11.636;2023-03-24T02:27:00;1.85;;;1.77;;
9424;SDS011;17139;52.140;11.636;2023-03-24T02:29:44;2.40;;;1.55;;
9424;SDS011;17139;52.140;11.636;2023-03-24T02:39:18;1.73;;;1.63;;
9424;SDS011;17139;52.140;11.636;2023-03-24T02:42:09;1.40;;;1.40;;
9424;SDS011;17139;52.140;11.636;2023-03-24T02:44:46;1.90;;;1.80;;
9424;SDS011;17139;52.140;11.636;2023-03-24T02:47:23;1.60;;;1.60;;
9424;SDS011;17139;52.140;11.636;2023-03-24T02:49:57;1.50;;;1.40;;
9424;SDS011;17139;52.140;11.636;2023-03-24T02:52:31;1.90;;;1.80;;
9424;SDS011;17139;52.140;11.636;2023-03-24T02:55:07;1.67;;;1.67;;
9424;SDS011;17139;52.140;11.636;2023-03-24T02:57:39;1.50;;;1.50;;
9424;SDS011;17139;52.140;11.636;2023-03-24T03:00:17;1.80;;;1.70;;
9424;SDS011;17139;52.140;11.636;2023-03-24T03:02:51;1.67;;;1.63;;
9424;SDS011;17139;52.140;11.636;2023-03-24T03:05:24;1.90;;;1.80;;
9424;SDS011;17139;52.140;11.636;2023-03-24T03:07:57;3.10;;;2.60;;
9424;SDS011;17139;52.140;11.636;2023-03-24T03:10:29;2.13;;;2.13;;
9424;SDS011;17139;52.140;11.636;2023-03-24T03:12:58;1.90;;;1.90;;
9424;SDS011;17139;52.140;11.636;2023-03-24T03:15:29;2.90;;;2.05;;
9424;SDS011;17139;52.140;11.636;2023-03-24T03:18:00;2.10;;;2.00;;
9424;SDS011;17139;52.140;11.636;2023-03-24T03:20:32;1.92;;;1.83;;
9424;SDS011;17139;52.140;11.636;2023-03-24T03:23:08;2.50;;;1.80;;
9424;SDS011;17139;52.140;11.636;2023-03-24T03:25:40;3.00;;;1.85;;
9424;SDS011;17139;52.140;11.636;2023-03-24T03:28:15;1.83;;;1.73;;
9424;SDS011;17139;52.140;11.636;2023-03-24T03:30:45;1.77;;;1.77;;
9424;SDS011;17139;52.140;11.636;2023-03-24T03:33:17;1.40;;;1.40;;
9424;SDS011;17139;52.140;11.636;2023-03-24T03:35:51;1.73;;;1.70;;
9424;SDS011;17139;52.140;11.636;2023-03-24T03:38:20;2.03;;;1.92;;
9424;SDS011;17139;52.140;11.636;2023-03-24T03:40:52;2.03;;;1.92;;
9424;SDS011;17139;52.140;11.636;2023-03-24T03:43:23;2.03;;;1.92;;
9424;SDS011;17139;52.140;11.636;2023-03-24T03:45:51;2.03;;;1.93;;
9424;SDS011;17139;52.140;11.636;2023-03-24T03:48:19;2.03;;;1.93;;
9424;SDS011;17139;52.140;11.636;2023-03-24T03:50:50;1.70;;;1.70;;
9424;SDS011;17139;52.140;11.636;2023-03-24T03:53:18;2.30;;;2.20;;
9424;SDS011;17139;52.140;11.636;2023-03-24T03:55:47;1.97;;;1.97;;
9424;SDS011;17139;52.140;11.636;2023-03-24T03:58:16;1.80;;;1.70;;
9424;SDS011;17139;52.140;11.636;2023-03-24T04:00:43;2.10;;;2.00;;
9424;SDS011;17139;52.140;11.636;2023-03-24T04:03:32;1.57;;;1.57;;
9424;SDS011;17139;52.140;11.636;2023-03-24T04:06:11;1.90;;;1.80;;
9424;SDS011;17139;52.140;11.636;2023-03-24T04:08:49;2.60;;;2.50;;
9424;SDS011;17139;52.140;11.636;2023-03-24T04:14:32;1.92;;;1.83;;
9424;SDS011;17139;52.140;11.636;2023-03-24T04:17:19;1.58;;;1.58;;
9424;SDS011;17139;52.140;11.636;2023-03-24T04:20:00;1.85;;;1.80;;
9424;SDS011;17139;52.140;11.636;2023-03-24T04:22:38;1.33;;;1.33;;
9424;SDS011;17139;52.140;11.636;2023-03-24T04:25:19;3.47;;;1.77;;
9424;SDS011;17139;52.140;11.636;2023-03-24T04:28:04;2.00;;;1.90;;
9424;SDS011;17139;52.140;11.636;2023-03-24T04:30:41;1.70;;;1.70;;
9424;SDS011;17139;52.140;11.636;2023-03-24T04:33:12;2.40;;;2.30;;
9424;SDS011;17139;52.140;11.636;2023-03-24T04:35:44;2.95;;;2.75;;
9424;SDS011;17139;52.140;11.636;2023-03-24T04:38:14;1.60;;;1.60;;
9424;SDS011;17139;52.140;11.636;2023-03-24T04:40:47;2.30;;;2.20;;
9424;SDS011;17139;52.140;11.636;2023-03-24T04:43:19;2.10;;;2.00;;
9424;SDS011;17139;52.140;11.636;2023-03-24T04:45:52;1.88;;;1.80;;
9424;SDS011;17139;52.140;11.636;2023-03-24T04:48:22;1.63;;;1.63;;
9424;SDS011;17139;52.140;11.636;2023-03-24T04:50:51;1.63;;;1.63;;
9424;SDS011;17139;52.140;11.636;2023-03-24T04:53:20;2.20;;;2.10;;
9424;SDS011;17139;52.140;11.636;2023-03-24T04:55:51;1.77;;;1.63;;
9424;SDS011;17139;52.140;11.636;2023-03-24T04:58:26;2.83;;;2.70;;
9424;SDS011;17139;52.140;11.636;2023-03-24T05:00:55;2.95;;;2.05;;
9424;SDS011;17139;52.140;11.636;2023-03-24T05:03:22;2.45;;;2.35;;
9424;SDS011;17139;52.140;11.636;2023-03-24T05:05:50;1.90;;;1.80;;
9424;SDS011;17139;52.140;11.636;2023-03-24T05:08:18;1.73;;;1.73;;
9424;SDS011;17139;52.140;11.636;2023-03-24T05:10:46;1.35;;;1.35;;
9424;SDS011;17139;52.140;11.636;2023-03-24T05:13:13;1.88;;;1.77;;
9424;SDS011;17139;52.140;11.636;2023-03-24T05:15:40;1.65;;;1.60;;
9424;SDS011;17139;52.140;11.636;2023-03-24T05:18:09;2.13;;;2.03;;
9424;SDS011;17139;52.140;11.636;2023-03-24T05:20:36;1.88;;;1.77;;
9424;SDS011;17139;52.140;11.636;2023-03-24T05:23:03;2.15;;;2.05;;
9424;SDS011;17139;52.140;11.636;2023-03-24T05:25:32;2.85;;;2.75;;
9424;SDS011;17139;52.140;11.636;2023-03-24T05:27:59;2.33;;;2.10;;
9424;SDS011;17139;52.140;11.636;2023-03-24T05:30:27;2.50;;;2.40;;
9424;SDS011;17139;52.140;11.636;2023-03-24T05:32:54;2.15;;;2.05;;
9424;SDS011;17139;52.140;11.636;2023-03-24T05:35:22;2.03;;;2.00;;
9424;SDS011;17139;52.140;11.636;2023-03-24T05:37:49;2.13;;;2.03;;
9424;SDS011;17139;52.140;11.636;2023-03-24T05:40:16;2.42;;;2.25;;
9424;SDS011;17139;52.140;11.636;2023-03-24T05:42:44;1.70;;;1.70;;
9424;SDS011;17139;52.140;11.636;2023-03-24T05:45:13;2.25;;;2.15;;
9424;SDS011;17139;52.140;11.636;2023-03-24T05:47:40;2.17;;;2.08;;
9424;SDS011;17139;52.140;11.636;2023-03-24T05:50:07;1.42;;;1.42;;
9424;SDS011;17139;52.140;11.636;2023-03-24T05:52:36;2.10;;;2.00;;
9424;SDS011;17139;52.140;11.636;2023-03-24T05:55:04;2.60;;;2.40;;
9424;SDS011;17139;52.140;11.636;2023-03-24T05:57:31;2.50;;;2.40;;
9424;SDS011;17139;52.140;11.636;2023-03-24T05:59:58;2.47;;;2.38;;
9424;SDS011;17139;52.140;11.636;2023-03-24T06:02:26;2.70;;;2.50;;
9424;SDS011;17139;52.140;11.636;2023-03-24T06:04:53;2.28;;;2.17;;
9424;SDS011;17139;52.140;11.636;2023-03-24T06:07:21;2.40;;;2.30;;
9424;SDS011;17139;52.140;11.636;2023-03-24T06:09:52;2.40;;;2.30;;
9424;SDS011;17139;52.140;11.636;2023-03-24T06:12:22;2.42;;;2.20;;
9424;SDS011;17139;52.140;11.636;2023-03-24T06:14:49;2.30;;;2.17;;
9424;SDS011;17139;52.140;11.636;2023-03-24T06:17:16;2.70;;;2.60;;
9424;SDS011;17139;52.140;11.636;2023-03-24T06:19:45;3.45;;;3.25;;
9424;SDS011;17139;52.140;11.636;2023-03-24T06:22:14;2.60;;;2.50;;
9424;SDS011;17139;52.140;11.636;2023-03-24T06:24:42;3.40;;;2.38;;
9424;SDS011;17139;52.140;11.636;2023-03-24T06:27:12;2.75;;;2.22;;
9424;SDS011;17139;52.140;11.636;2023-03-24T06:29:39;2.47;;;2.38;;
9424;SDS011;17139;52.140;11.636;2023-03-24T06:32:07;2.47;;;2.05;;
9424;SDS011;17139;52.140;11.636;2023-03-24T06:34:35;2.22;;;2.13;;
9424;SDS011;17139;52.140;11.636;2023-03-24T06:37:02;2.25;;;2.10;;
9424;SDS011;17139;52.140;11.636;2023-03-24T06:39:30;2.40;;;2.20;;
9424;SDS011;17139;52.140;11.636;2023-03-24T06:41:57;2.75;;;2.55;;
9424;SDS011;17139;52.140;11.636;2023-03-24T06:44:26;2.50;;;2.40;;
9424;SDS011;17139;52.140;11.636;2023-03-24T06:46:53;2.30;;;2.20;;
9424;SDS011;17139;52.140;11.636;2023-03-24T06:49:20;2.65;;;2.45;;
9424;SDS011;17139;52.140;11.636;2023-03-24T06:51:47;1.88;;;1.88;;
9424;SDS011;17139;52.140;11.636;2023-03-24T06:54:14;2.20;;;2.10;;
9424;SDS011;17139;52.140;11.636;2023-03-24T06:56:42;3.60;;;2.45;;
9424;SDS011;17139;52.140;11.636;2023-03-24T06:59:09;3.58;;;2.42;;
9424;SDS011;17139;52.140;11.636;2023-03-24T07:01:38;5.40;;;2.35;;
9424;SDS011;17139;52.140;11.636;2023-03-24T07:04:05;3.20;;;3.00;;
9424;SDS011;17139;52.140;11.636;2023-03-24T07:06:32;3.30;;;3.10;;
9424;SDS011;17139;52.140;11.636;2023-03-24T07:08:59;2.80;;;2.70;;
9424;SDS011;17139;52.140;11.636;2023-03-24T07:11:26;2.55;;;2.45;;
9424;SDS011;17139;52.140;11.636;2023-03-24T07:13:53;1.75;;;1.73;;
9424;SDS011;17139;52.140;11.636;2023-03-24T07:16:21;2.47;;;2.38;;
9424;SDS011;17139;52.140;11.636;2023-03-24T07:18:49;2.83;;;2.30;;
9424;SDS011;17139;52.140;11.636;2023-03-24T07:21:16;2.30;;;2.20;;
9424;SDS011;17139;52.140;11.636;2023-03-24T07:23:43;2.95;;;2.85;;
9424;SDS011;17139;52.140;11.636;2023-03-24T07:26:11;3.00;;;2.90;;
9424;SDS011;17139;52.140;11.636;2023-03-24T07:28:38;3.37;;;3.17;;
9424;SDS011;17139;52.140;11.636;2023-03-24T07:31:05;2.95;;;2.75;;
9424;SDS011;17139;52.140;11.636;2023-03-24T07:33:34;2.88;;;2.65;;
9424;SDS011;17139;52.140;11.636;2023-03-24T07:36:03;2.50;;;2.40;;
9424;SDS011;17139;52.140;11.636;2023-03-24T07:38:32;2.30;;;2.20;;
9424;SDS011;17139;52.140;11.636;2023-03-24T07:40:59;1.90;;;1.80;;
9424;SDS011;17139;52.140;11.636;2023-03-24T07:43:26;2.55;;;2.45;;
9424;SDS011;17139;52.140;11.636;2023-03-24T07:45:53;2.30;;;2.20;;
9424;SDS011;17139;52.140;11.636;2023-03-24T07:48:20;3.20;;;3.00;;
9424;SDS011;17139;52.140;11.636;2023-03-24T07:50:47;2.33;;;2.22;;
9424;SDS011;17139;52.140;11.636;2023-03-24T07:53:16;2.33;;;2.22;;
9424;SDS011;17139;52.140;11.636;2023-03-24T07:55:44;2.90;;;2.73;;
9424;SDS011;17139;52.140;11.636;2023-03-24T07:58:11;2.35;;;2.25;;
9424;SDS011;17139;52.140;11.636;2023-03-24T08:00:38;2.28;;;2.17;;
9424;SDS011;17139;52.140;11.636;2023-03-24T08:03:07;2.25;;;2.15;;
9424;SDS011;17139;52.140;11.636;2023-03-24T08:05:38;2.60;;;2.50;;
9424;SDS011;17139;52.140;11.636;2023-03-24T08:08:06;2.42;;;2.33;;
9424;SDS011;17139;52.140;11.636;2023-03-24T08:10:34;2.70;;;2.60;;
9424;SDS011;17139;52.140;11.636;2023-03-24T08:13:02;3.22;;;3.03;;
9424;SDS011;17139;52.140;11.636;2023-03-24T08:15:29;3.13;;;3.03;;
9424;SDS011;17139;52.140;11.636;2023-03-24T08:17:56;2.80;;;2.70;;
9424;SDS011;17139;52.140;11.636;2023-03-24T08:23:12;3.05;;;2.85;;
9424;SDS011;17139;52.140;11.636;2023-03-24T08:25:41;3.55;;;3.35;;
9424;SDS011;17139;52.140;11.636;2023-03-24T08:28:08;2.78;;;2.58;;
9424;SDS011;17139;52.140;11.636;2023-03-24T08:30:35;2.33;;;2.22;;
9424;SDS011;17139;52.140;11.636;2023-03-24T08:33:02;3.45;;;3.25;;
9424;SDS011;17139;52.140;11.636;2023-03-24T08:35:30;3.08;;;2.88;;
9424;SDS011;17139;52.140;11.636;2023-03-24T08:37:58;2.80;;;2.70;;
9424;SDS011;17139;52.140;11.636;2023-03-24T08:40:27;2.70;;;2.60;;
9424;SDS011;17139;52.140;11.636;2023-03-24T08:42:58;2.38;;;2.17;;
9424;SDS011;17139;52.140;11.636;2023-03-24T08:45:28;2.20;;;2.10;;
9424;SDS011;17139;52.140;11.636;2023-03-24T08:47:57;2.28;;;2.17;;
9424;SDS011;17139;52.140;11.636;2023-03-24T08:50:27;2.65;;;2.55;;
9424;SDS011;17139;52.140;11.636;2023-03-24T08:52:56;2.22;;;2.13;;
9424;SDS011;17139;52.140;11.636;2023-03-24T08:55:23;1.58;;;1.58;;
9424;SDS011;17139;52.140;11.636;2023-03-24T08:57:51;2.65;;;2.45;;
9424;SDS011;17139;52.140;11.636;2023-03-24T09:00:20;2.00;;;2.00;;
9424;SDS011;17139;52.140;11.636;2023-03-24T09:02:48;2.15;;;2.05;;
9424;SDS011;17139;52.140;11.636;2023-03-24T09:05:18;2.70;;;1.55;;
9424;SDS011;17139;52.140;11.636;2023-03-24T09:07:45;2.20;;;2.10;;
9424;SDS011;17139;52.140;11.636;2023-03-24T09:10:14;2.20;;;2.00;;
9424;SDS011;17139;52.140;11.636;2023-03-24T09:12:42;1.67;;;1.58;;
9424;SDS011;17139;52.140;11.636;2023-03-24T09:15:10;1.60;;;1.50;;
9424;SDS011;17139;52.140;11.636;2023-03-24T09:17:40;2.28;;;1.20;;
9424;SDS011;17139;52.140;11.636;2023-03-24T09:20:09;1.10;;;1.10;;
9424;SDS011;17139;52.140;11.636;2023-03-24T09:22:38;1.05;;;1.05;;
9424;SDS011;17139;52.140;11.636;2023-03-24T09:25:07;1.05;;;1.05;;
9424;SDS011;17139;52.140;11.636;2023-03-24T09:27:35;1.10;;;1.00;;
9424;SDS011;17139;52.140;11.636;2023-03-24T09:30:04;0.75;;;0.70;;
9424;SDS011;17139;52.140;11.636;2023-03-24T09:32:33;1.00;;;1.00;;
9424;SDS011;17139;52.140;11.636;2023-03-24T09:35:02;2.28;;;1.25;;
9424;SDS011;17139;52.140;11.636;2023-03-24T09:37:31;1.10;;;1.10;;
9424;SDS011;17139;52.140;11.636;2023-03-24T09:40:00;1.10;;;1.10;;
9424;SDS011;17139;52.140;11.636;2023-03-24T09:42:29;2.65;;;1.00;;
9424;SDS011;17139;52.140;11.636;2023-03-24T09:45:02;0.77;;;0.77;;
9424;SDS011;17139;52.140;11.636;2023-03-24T09:47:33;0.80;;;0.80;;
9424;SDS011;17139;52.140;11.636;2023-03-24T09:50:07;1.25;;;1.25;;
9424;SDS011;17139;52.140;11.636;2023-03-24T09:52:43;1.23;;;1.23;;
9424;SDS011;17139;52.140;11.636;2023-03-24T09:55:15;1.35;;;1.20;;
9424;SDS011;17139;52.140;11.636;2023-03-24T09:57:46;1.25;;;1.25;;
9424;SDS011;17139;52.140;11.636;2023-03-24T10:00:15;3.20;;;1.55;;
9424;SDS011;17139;52.140;11.636;2023-03-24T10:02:45;1.08;;;1.08;;
9424;SDS011;17139;52.140;11.636;2023-03-24T10:05:15;1.20;;;1.20;;
9424;SDS011;17139;52.140;11.636;2023-03-24T10:07:47;1.60;;;1.50;;
9424;SDS011;17139;52.140;11.636;2023-03-24T10:10:21;1.23;;;1.23;;
9424;SDS011;17139;52.140;11.636;2023-03-24T10:12:55;1.25;;;1.25;;
9424;SDS011;17139;52.140;11.636;2023-03-24T10:15:31;1.30;;;1.20;;
9424;SDS011;17139;52.140;11.636;2023-03-24T10:18:09;1.98;;;1.45;;
9424;SDS011;17139;52.140;11.636;2023-03-24T10:20:51;1.40;;;1.33;;
9424;SDS011;17139;52.140;11.636;2023-03-24T10:23:26;1.10;;;1.10;;
9424;SDS011;17139;52.140;11.636;2023-03-24T10:26:01;1.25;;;1.25;;
9424;SDS011;17139;52.140;11.636;2023-03-24T10:28:35;1.35;;;1.35;;
9424;SDS011;17139;52.140;11.636;2023-03-24T10:31:08;1.30;;;1.20;;
9424;SDS011;17139;52.140;11.636;2023-03-24T10:33:39;3.00;;;1.45;;
9424;SDS011;17139;52.140;11.636;2023-03-24T10:36:10;1.23;;;1.23;;
9424;SDS011;17139;52.140;11.636;2023-03-24T10:38:39;1.15;;;1.15;;
9424;SDS011;17139;52.140;11.636;2023-03-24T10:41:06;1.05;;;1.05;;
9424;SDS011;17139;52.140;11.636;2023-03-24T10:43:40;1.20;;;1.20;;
9424;SDS011;17139;52.140;11.636;2023-03-24T10:46:08;1.10;;;1.10;;
9424;SDS011;17139;52.140;11.636;2023-03-24T10:48:42;1.45;;;1.45;;
9424;SDS011;17139;52.140;11.636;2023-03-24T10:51:15;2.08;;;1.42;;
9424;SDS011;17139;52.140;11.636;2023-03-24T10:53:44;1.40;;;1.30;;
9424;SDS011;17139;52.140;11.636;2023-03-24T10:56:16;1.40;;;1.40;;
9424;SDS011;17139;52.140;11.636;2023-03-24T10:58:45;1.77;;;1.67;;
9424;SDS011;17139;52.140;11.636;2023-03-24T11:01:21;1.35;;;1.35;;
9424;SDS011;17139;52.140;11.636;2023-03-24T11:03:51;1.15;;;1.15;;
9424;SDS011;17139;52.140;11.636;2023-03-24T11:06:24;1.38;;;1.38;;
9424;SDS011;17139;52.140;11.636;2023-03-24T11:09:06;0.70;;;0.70;;
9424;SDS011;17139;52.140;11.636;2023-03-24T11:11:43;1.00;;;1.00;;
9424;SDS011;17139;52.140;11.636;2023-03-24T11:14:17;1.30;;;1.30;;
9424;SDS011;17139;52.140;11.636;2023-03-24T11:16:49;1.20;;;1.20;;
9424;SDS011;17139;52.140;11.636;2023-03-24T11:19:17;1.70;;;1.60;;
9424;SDS011;17139;52.140;11.636;2023-03-24T11:21:47;1.20;;;1.20;;
9424;SDS011;17139;52.140;11.636;2023-03-24T11:24:17;1.13;;;1.13;;
9424;SDS011;17139;52.140;11.636;2023-03-24T11:26:46;4.35;;;1.30;;
9424;SDS011;17139;52.140;11.636;2023-03-24T11:29:17;0.70;;;0.70;;
9424;SDS011;17139;52.140;11.636;2023-03-24T11:31:52;1.52;;;1.42;;
9424;SDS011;17139;52.140;11.636;2023-03-24T11:34:22;1.38;;;1.38;;
9424;SDS011;17139;52.140;11.636;2023-03-24T11:36:53;1.35;;;1.25;;
9424;SDS011;17139;52.140;11.636;2023-03-24T11:39:22;1.42;;;1.42;;
9424;SDS011;17139;52.140;11.636;2023-03-24T11:41:51;1.30;;;1.30;;
9424;SDS011;17139;52.140;11.636;2023-03-24T11:44:26;1.40;;;1.40;;
9424;SDS011;17139;52.140;11.636;2023-03-24T11:46:58;1.85;;;1.38;;
9424;SDS011;17139;52.140;11.636;2023-03-24T11:49:30;1.88;;;1.35;;
9424;SDS011;17139;52.140;11.636;2023-03-24T11:52:04;1.50;;;1.40;;
9424;SDS011;17139;52.140;11.636;2023-03-24T11:54:35;1.30;;;1.30;;
9424;SDS011;17139;52.140;11.636;2023-03-24T11:57:03;0.93;;;0.93;;
9424;SDS011;17139;52.140;11.636;2023-03-24T11:59:39;2.35;;;0.77;;
9424;SDS011;17139;52.140;11.636;2023-03-24T12:02:17;1.05;;;0.98;;
9424;SDS011;17139;52.140;11.636;2023-03-24T12:05:02;2.20;;;1.20;;
9424;SDS011;17139;52.140;11.636;2023-03-24T12:07:40;3.03;;;1.40;;
9424;SDS011;17139;52.140;11.636;2023-03-24T12:10:43;1.40;;;1.30;;
9424;SDS011;17139;52.140;11.636;2023-03-24T12:13:22;1.13;;;1.13;;
9424;SDS011;17139;52.140;11.636;2023-03-24T12:15:59;1.10;;;1.10;;
9424;SDS011;17139;52.140;11.636;2023-03-24T12:18:52;1.30;;;1.30;;
9424;SDS011;17139;52.140;11.636;2023-03-24T12:21:43;8.15;;;1.83;;
9424;SDS011;17139;52.140;11.636;2023-03-24T12:24:21;1.33;;;1.20;;
9424;SDS011;17139;52.140;11.636;2023-03-24T12:26:57;1.50;;;1.20;;
9424;SDS011;17139;52.140;11.636;2023-03-24T12:29:34;1.70;;;1.35;;
9424;SDS011;17139;52.140;11.636;2023-03-24T12:35:33;2.50;;;1.20;;
9424;SDS011;17139;52.140;11.636;2023-03-24T12:38:22;1.40;;;1.30;;
9424;SDS011;17139;52.140;11.636;2023-03-24T12:41:06;1.30;;;1.30;;
9424;SDS011;17139;52.140;11.636;2023-03-24T12:43:49;1.23;;;1.23;;
9424;SDS011;17139;52.140;11.636;2023-03-24T12:46:30;1.30;;;1.30;;
9424;SDS011;17139;52.140;11.636;2023-03-24T12:52:12;1.13;;;1.13;;
9424;SDS011;17139;52.140;11.636;2023-03-24T12:54:59;1.30;;;1.30;;
9424;SDS011;17139;52.140;11.636;2023-03-24T12:57:34;1.50;;;1.40;;
9424;SDS011;17139;52.140;11.636;2023-03-24T13:00:05;1.40;;;1.40;;
9424;SDS011;17139;52.140;11.636;2023-03-24T13:02:40;1.63;;;1.52;;
9424;SDS011;17139;52.140;11.636;2023-03-24T13:05:17;1.42;;;1.40;;
9424;SDS011;17139;52.140;11.636;2023-03-24T13:07:48;1.08;;;1.08;;
9424;SDS011;17139;52.140;11.636;2023-03-24T13:10:19;1.67;;;1.58;;
9424;SDS011;17139;52.140;11.636;2023-03-24T13:12:52;1.50;;;1.40;;
9424;SDS011;17139;52.140;11.636;2023-03-24T13:15:23;1.80;;;1.70;;
9424;SDS011;17139;52.140;11.636;2023-03-24T13:17:57;3.05;;;1.60;;
9424;SDS011;17139;52.140;11.636;2023-03-24T13:20:31;1.67;;;1.50;;
9424;SDS011;17139;52.140;11.636;2023-03-24T13:23:01;1.70;;;1.60;;
9424;SDS011;17139;52.140;11.636;2023-03-24T13:25:37;1.42;;;1.33;;
9424;SDS011;17139;52.140;11.636;2023-03-24T13:28:16;2.75;;;1.58;;
9424;SDS011;17139;52.140;11.636;2023-03-24T13:30:48;3.20;;;1.85;;
9424;SDS011;17139;52.140;11.636;2023-03-24T13:33:17;1.90;;;1.80;;
9424;SDS011;17139;52.140;11.636;2023-03-24T13:35:54;1.65;;;1.55;;
9424;SDS011;17139;52.140;11.636;2023-03-24T13:38:31;1.50;;;1.40;;
9424;SDS011;17139;52.140;11.636;2023-03-24T13:41:02;1.55;;;1.55;;
9424;SDS011;17139;52.140;11.636;2023-03-24T13:43:32;1.75;;;1.65;;
9424;SDS011;17139;52.140;11.636;2023-03-24T13:46:00;4.95;;;2.15;;
9424;SDS011;17139;52.140;11.636;2023-03-24T13:48:34;4.97;;;1.98;;
9424;SDS011;17139;52.140;11.636;2023-03-24T13:51:03;2.33;;;2.00;;
9424;SDS011;17139;52.140;11.636;2023-03-24T13:53:35;1.52;;;1.42;;
9424;SDS011;17139;52.140;11.636;2023-03-24T13:56:06;2.00;;;1.90;;
9424;SDS011;17139;52.140;11.636;2023-03-24T13:58:47;3.15;;;1.80;;
9424;SDS011;17139;52.140;11.636;2023-03-24T14:01:31;3.13;;;1.60;;
9424;SDS011;17139;52.140;11.636;2023-03-24T14:04:14;2.25;;;1.45;;
9424;SDS011;17139;52.140;11.636;2023-03-24T14:07:04;1.77;;;1.67;;
9424;SDS011;17139;52.140;11.636;2023-03-24T14:09:58;1.55;;;1.50;;
9424;SDS011;17139;52.140;11.636;2023-03-24T14:12:28;1.40;;;1.30;;
9424;SDS011;17139;52.140;11.636;2023-03-24T14:17:52;1.58;;;1.48;;
9424;SDS011;17139;52.140;11.636;2023-03-24T14:20:25;3.13;;;1.30;;
9424;SDS011;17139;52.140;11.636;2023-03-24T14:22:57;2.63;;;1.73;;
9424;SDS011;17139;52.140;11.636;2023-03-24T14:25:25;1.58;;;1.52;;
9424;SDS011;17139;52.140;11.636;2023-03-24T14:28:05;2.40;;;1.67;;
9424;SDS011;17139;52.140;11.636;2023-03-24T14:30:53;1.47;;;1.37;;
9424;SDS011;17139;52.140;11.636;2023-03-24T14:33:27;1.30;;;1.30;;
9424;SDS011;17139;52.140;11.636;2023-03-24T14:35:56;1.67;;;1.58;;
9424;SDS011;17139;52.140;11.636;2023-03-24T14:38:29;1.13;;;1.13;;
9424;SDS011;17139;52.140;11.636;2023-03-24T14:41:04;2.13;;;1.67;;
9424;SDS011;17139;52.140;11.636;2023-03-24T14:43:54;1.63;;;1.50;;
9424;SDS011;17139;52.140;11.636;2023-03-24T14:46:34;1.50;;;1.50;;
9424;SDS011;17139;52.140;11.636;2023-03-24T14:49:05;1.73;;;1.63;;
9424;SDS011;17139;52.140;11.636;2023-03-24T14:51:41;1.98;;;1.80;;
9424;SDS011;17139;52.140;11.636;2023-03-24T14:54:16;1.60;;;1.48;;
9424;SDS011;17139;52.140;11.636;2023-03-24T14:56:54;3.88;;;1.45;;
9424;SDS011;17139;52.140;11.636;2023-03-24T14:59:29;2.67;;;1.90;;
9424;SDS011;17139;52.140;11.636;2023-03-24T15:02:19;2.78;;;2.10;;
9424;SDS011;17139;52.140;11.636;2023-03-24T15:07:45;1.60;;;1.50;;
9424;SDS011;17139;52.140;11.636;2023-03-24T15:10:24;2.25;;;1.60;;
9424;SDS011;17139;52.140;11.636;2023-03-24T15:12:51;1.55;;;1.38;;
9424;SDS011;17139;52.140;11.636;2023-03-24T15:15:20;2.03;;;1.73;;
9424;SDS011;17139;52.140;11.636;2023-03-24T15:17:50;2.67;;;1.38;;
9424;SDS011;17139;52.140;11.636;2023-03-24T15:20:19;1.70;;;1.42;;
9424;SDS011;17139;52.140;11.636;2023-03-24T15:22:47;1.80;;;1.70;;
9424;SDS011;17139;52.140;11.636;2023-03-24T15:25:15;2.15;;;1.67;;
9424;SDS011;17139;52.140;11.636;2023-03-24T15:27:47;0.80;;;0.80;;
9424;SDS011;17139;52.140;11.636;2023-03-24T15:30:16;1.83;;;1.40;;
9424;SDS011;17139;52.140;11.636;2023-03-24T15:32:43;2.80;;;1.70;;
9424;SDS011;17139;52.140;11.636;2023-03-24T15:35:14;1.90;;;1.80;;
9424;SDS011;17139;52.140;11.636;2023-03-24T15:37:44;1.27;;;1.27;;
9424;SDS011;17139;52.140;11.636;2023-03-24T15:40:29;1.23;;;1.13;;
9424;SDS011;17139;52.140;11.636;2023-03-24T15:42:59;3.55;;;1.23;;
9424;SDS011;17139;52.140;11.636;2023-03-24T15:45:29;1.65;;;1.52;;